sensor_id;sensor_type;location;lat;lon;timestamp;pressure;altitude;pressure_sealevel;temperature
81885;BMP280;71340;55.154;30.266;2023-07-09T12:26:06;99290.25;;;23.98
81885;BMP280;71340;55.154;30.266;2023-07-09T12:28:31;99267.34;;;23.67
81885;BMP280;71340;55.154;30.266;2023-07-09T12:30:57;99273.88;;;24.27
81885;BMP280;71340;55.154;30.266;2023-07-09T12:33:25;99274.97;;;24.56
81885;BMP280;71340;55.154;30.266;2023-07-09T12:35:57;99262.38;;;24.84
81885;BMP280;71340;55.154;30.266;2023-07-09T12:38:29;99276.22;;;25.00
81885;BMP280;71340;55.154;30.266;2023-07-09T12:40:55;99265.22;;;24.89
81885;BMP280;71340;55.154;30.266;2023-07-09T12:43:31;99270.53;;;24.62
81885;BMP280;71340;55.154;30.266;2023-07-09T12:46:01;99275.47;;;25.18
81885;BMP280;71340;55.154;30.266;2023-07-09T12:48:28;99293.50;;;25.08
81885;BMP280;71340;55.154;30.266;2023-07-09T12:50:58;99263.69;;;24.88
81885;BMP280;71340;55.154;30.266;2023-07-09T12:53:27;99264.44;;;25.85
81885;BMP280;71340;55.154;30.266;2023-07-09T12:55:58;99273.09;;;26.45
81885;BMP280;71340;55.154;30.266;2023-07-09T12:58:37;99257.28;;;26.61
81885;BMP280;71340;55.154;30.266;2023-07-09T13:01:15;99263.19;;;26.51
81885;BMP280;71340;55.154;30.266;2023-07-09T13:03:41;99264.66;;;26.05
81885;BMP280;71340;55.154;30.266;2023-07-09T13:06:26;99250.00;;;25.13
81885;BMP280;71340;55.154;30.266;2023-07-09T13:08:58;99259.63;;;25.47
81885;BMP280;71340;55.154;30.266;2023-07-09T13:11:24;99275.78;;;26.45
81885;BMP280;71340;55.154;30.266;2023-07-09T13:13:58;99270.91;;;26.96
81885;BMP280;71340;55.154;30.266;2023-07-09T13:16:24;99262.84;;;27.25
81885;BMP280;71340;55.154;30.266;2023-07-09T13:18:50;99267.97;;;27.23
81885;BMP280;71340;55.154;30.266;2023-07-09T13:21:19;99269.44;;;27.24
81885;BMP280;71340;55.154;30.266;2023-07-09T13:23:44;99256.63;;;27.19
81885;BMP280;71340;55.154;30.266;2023-07-09T13:26:11;99254.97;;;27.22
81885;BMP280;71340;55.154;30.266;2023-07-09T13:28:37;99266.00;;;28.22
81885;BMP280;71340;55.154;30.266;2023-07-09T13:31:16;99254.56;;;26.85
81885;BMP280;71340;55.154;30.266;2023-07-09T13:33:43;99251.97;;;27.05
81885;BMP280;71340;55.154;30.266;2023-07-09T13:36:09;99257.59;;;28.14
81885;BMP280;71340;55.154;30.266;2023-07-09T13:38:35;99252.78;;;29.15
81885;BMP280;71340;55.154;30.266;2023-07-09T13:41:10;99241.47;;;29.17
81885;BMP280;71340;55.154;30.266;2023-07-09T13:43:36;99248.84;;;28.90
81885;BMP280;71340;55.154;30.266;2023-07-09T13:46:03;99241.50;;;27.22
81885;BMP280;71340;55.154;30.266;2023-07-09T13:48:31;99239.28;;;27.20
81885;BMP280;71340;55.154;30.266;2023-07-09T13:50:57;99229.63;;;28.32
81885;BMP280;71340;55.154;30.266;2023-07-09T13:53:26;99234.53;;;27.44
81885;BMP280;71340;55.154;30.266;2023-07-09T13:55:53;99240.13;;;26.97
81885;BMP280;71340;55.154;30.266;2023-07-09T13:58:21;99228.81;;;27.71
81885;BMP280;71340;55.154;30.266;2023-07-09T14:00:48;99229.88;;;28.14
81885;BMP280;71340;55.154;30.266;2023-07-09T14:03:24;99229.31;;;29.01
81885;BMP280;71340;55.154;30.266;2023-07-09T14:05:50;99228.91;;;29.45
81885;BMP280;71340;55.154;30.266;2023-07-09T14:08:16;99231.88;;;29.89
81885;BMP280;71340;55.154;30.266;2023-07-09T14:10:44;99237.16;;;31.68
81885;BMP280;71340;55.154;30.266;2023-07-09T14:13:14;99222.69;;;30.45
81885;BMP280;71340;55.154;30.266;2023-07-09T14:15:40;99226.84;;;29.65
81885;BMP280;71340;55.154;30.266;2023-07-09T14:18:11;99222.69;;;29.70
81885;BMP280;71340;55.154;30.266;2023-07-09T14:20:37;99226.84;;;29.29
81885;BMP280;71340;55.154;30.266;2023-07-09T14:23:02;99221.66;;;30.15
81885;BMP280;71340;55.154;30.266;2023-07-09T14:25:27;99222.91;;;31.57
81885;BMP280;71340;55.154;30.266;2023-07-09T14:27:54;99219.56;;;31.97
81885;BMP280;71340;55.154;30.266;2023-07-09T14:30:21;99218.19;;;32.20
81885;BMP280;71340;55.154;30.266;2023-07-09T14:32:48;99213.53;;;31.58
81885;BMP280;71340;55.154;30.266;2023-07-09T14:35:21;99222.97;;;31.40
81885;BMP280;71340;55.154;30.266;2023-07-09T14:37:49;99232.56;;;31.36
81885;BMP280;71340;55.154;30.266;2023-07-09T14:40:16;99220.47;;;32.81
81885;BMP280;71340;55.154;30.266;2023-07-09T14:42:42;99225.19;;;31.20
81885;BMP280;71340;55.154;30.266;2023-07-09T14:47:44;99225.69;;;29.83
81885;BMP280;71340;55.154;30.266;2023-07-09T14:50:10;99213.06;;;30.22
81885;BMP280;71340;55.154;30.266;2023-07-09T14:52:35;99213.75;;;28.19
81885;BMP280;71340;55.154;30.266;2023-07-09T14:55:02;99219.81;;;27.60
81885;BMP280;71340;55.154;30.266;2023-07-09T14:57:27;99216.56;;;27.70
81885;BMP280;71340;55.154;30.266;2023-07-09T14:59:57;99212.28;;;27.98
81885;BMP280;71340;55.154;30.266;2023-07-09T15:02:36;99217.06;;;28.09
81885;BMP280;71340;55.154;30.266;2023-07-09T15:05:04;99206.88;;;28.38
81885;BMP280;71340;55.154;30.266;2023-07-09T15:07:30;99212.50;;;27.60
81885;BMP280;71340;55.154;30.266;2023-07-09T15:09:59;99208.25;;;26.43
81885;BMP280;71340;55.154;30.266;2023-07-09T15:12:30;99212.38;;;26.53
81885;BMP280;71340;55.154;30.266;2023-07-09T15:17:39;99213.88;;;26.07
81885;BMP280;71340;55.154;30.266;2023-07-09T15:20:04;99205.69;;;25.36
81885;BMP280;71340;55.154;30.266;2023-07-09T15:22:34;99192.78;;;24.80
81885;BMP280;71340;55.154;30.266;2023-07-09T15:25:00;99206.28;;;24.23
81885;BMP280;71340;55.154;30.266;2023-07-09T15:27:26;99213.50;;;24.04
81885;BMP280;71340;55.154;30.266;2023-07-09T15:29:52;99209.69;;;24.32
81885;BMP280;71340;55.154;30.266;2023-07-09T15:32:17;99209.16;;;24.73
81885;BMP280;71340;55.154;30.266;2023-07-09T15:34:42;99204.69;;;24.70
81885;BMP280;71340;55.154;30.266;2023-07-09T15:37:13;99202.91;;;24.40
81885;BMP280;71340;55.154;30.266;2023-07-09T15:39:40;99196.75;;;23.82
81885;BMP280;71340;55.154;30.266;2023-07-09T15:42:11;99210.66;;;23.59
81885;BMP280;71340;55.154;30.266;2023-07-09T15:44:36;99208.78;;;23.47
81885;BMP280;71340;55.154;30.266;2023-07-09T15:47:02;99201.91;;;23.15
81885;BMP280;71340;55.154;30.266;2023-07-09T15:49:29;99206.44;;;23.06
81885;BMP280;71340;55.154;30.266;2023-07-09T15:51:55;99194.53;;;23.07
81885;BMP280;71340;55.154;30.266;2023-07-09T15:54:23;99204.94;;;23.05
81885;BMP280;71340;55.154;30.266;2023-07-09T15:56:50;99216.56;;;23.11
81885;BMP280;71340;55.154;30.266;2023-07-09T15:59:35;99226.44;;;22.55
81885;BMP280;71340;55.154;30.266;2023-07-09T16:02:12;99224.88;;;22.45
81885;BMP280;71340;55.154;30.266;2023-07-09T16:04:38;99253.22;;;22.04
81885;BMP280;71340;55.154;30.266;2023-07-09T16:07:03;99249.72;;;21.79
81885;BMP280;71340;55.154;30.266;2023-07-09T16:09:29;99261.56;;;21.65
81885;BMP280;71340;55.154;30.266;2023-07-09T16:11:54;99264.59;;;21.51
81885;BMP280;71340;55.154;30.266;2023-07-09T16:14:27;99264.94;;;21.66
81885;BMP280;71340;55.154;30.266;2023-07-09T16:16:54;99251.91;;;21.96
81885;BMP280;71340;55.154;30.266;2023-07-09T16:19:21;99247.56;;;21.61
81885;BMP280;71340;55.154;30.266;2023-07-09T16:21:49;99249.38;;;21.64
81885;BMP280;71340;55.154;30.266;2023-07-09T16:24:27;99251.59;;;21.53
81885;BMP280;71340;55.154;30.266;2023-07-09T16:26:55;99260.13;;;21.61
81885;BMP280;71340;55.154;30.266;2023-07-09T16:29:26;99251.25;;;21.51
81885;BMP280;71340;55.154;30.266;2023-07-09T16:31:53;99248.00;;;21.15
81885;BMP280;71340;55.154;30.266;2023-07-09T16:34:22;99275.00;;;21.17
81885;BMP280;71340;55.154;30.266;2023-07-09T16:36:47;99264.72;;;21.32
81885;BMP280;71340;55.154;30.266;2023-07-09T16:39:25;99259.03;;;21.46
81885;BMP280;71340;55.154;30.266;2023-07-09T16:41:52;99270.41;;;21.34
81885;BMP280;71340;55.154;30.266;2023-07-09T16:44:17;99271.50;;;21.20
81885;BMP280;71340;55.154;30.266;2023-07-09T16:46:43;99279.78;;;20.93
81885;BMP280;71340;55.154;30.266;2023-07-09T16:49:28;99290.91;;;21.21
81885;BMP280;71340;55.154;30.266;2023-07-09T16:51:56;99289.88;;;21.02
81885;BMP280;71340;55.154;30.266;2023-07-09T16:54:22;99277.31;;;21.15
81885;BMP280;71340;55.154;30.266;2023-07-09T16:56:47;99282.00;;;20.95
81885;BMP280;71340;55.154;30.266;2023-07-09T16:59:13;99285.25;;;21.02
81885;BMP280;71340;55.154;30.266;2023-07-09T17:01:38;99281.41;;;21.20
81885;BMP280;71340;55.154;30.266;2023-07-09T17:04:25;99286.44;;;20.85
81885;BMP280;71340;55.154;30.266;2023-07-09T17:06:56;99288.34;;;20.85
81885;BMP280;71340;55.154;30.266;2023-07-09T17:09:21;99281.25;;;20.94
81885;BMP280;71340;55.154;30.266;2023-07-09T17:11:56;99273.16;;;20.82
81885;BMP280;71340;55.154;30.266;2023-07-09T17:14:22;99272.75;;;20.51
81885;BMP280;71340;55.154;30.266;2023-07-09T17:16:47;99268.19;;;20.68
81885;BMP280;71340;55.154;30.266;2023-07-09T17:19:14;99272.56;;;20.42
81885;BMP280;71340;55.154;30.266;2023-07-09T17:21:43;99280.47;;;20.62
81885;BMP280;71340;55.154;30.266;2023-07-09T17:24:29;99282.16;;;20.56
81885;BMP280;71340;55.154;30.266;2023-07-09T17:26:56;99274.84;;;20.60
81885;BMP280;71340;55.154;30.266;2023-07-09T17:29:21;99282.75;;;20.63
81885;BMP280;71340;55.154;30.266;2023-07-09T17:31:49;99280.19;;;20.76
81885;BMP280;71340;55.154;30.266;2023-07-09T17:34:15;99277.25;;;20.70
81885;BMP280;71340;55.154;30.266;2023-07-09T17:36:42;99290.34;;;20.81
81885;BMP280;71340;55.154;30.266;2023-07-09T17:39:19;99288.75;;;20.67
81885;BMP280;71340;55.154;30.266;2023-07-09T17:41:46;99288.34;;;20.69
81885;BMP280;71340;55.154;30.266;2023-07-09T17:44:23;99285.69;;;20.69
81885;BMP280;71340;55.154;30.266;2023-07-09T17:46:51;99286.66;;;20.59
81885;BMP280;71340;55.154;30.266;2023-07-09T17:49:30;99290.06;;;20.43
81885;BMP280;71340;55.154;30.266;2023-07-09T17:51:55;99301.53;;;20.40
81885;BMP280;71340;55.154;30.266;2023-07-09T17:54:23;99291.06;;;20.30
81885;BMP280;71340;55.154;30.266;2023-07-09T17:56:51;99288.47;;;20.10
81885;BMP280;71340;55.154;30.266;2023-07-09T17:59:19;99293.44;;;20.08
81885;BMP280;71340;55.154;30.266;2023-07-09T18:02:24;99299.09;;;20.10
81885;BMP280;71340;55.154;30.266;2023-07-09T18:04:50;99303.47;;;20.01
81885;BMP280;71340;55.154;30.266;2023-07-09T18:07:27;99296.91;;;20.05
81885;BMP280;71340;55.154;30.266;2023-07-09T18:09:52;99285.78;;;20.10
81885;BMP280;71340;55.154;30.266;2023-07-09T18:12:20;99296.53;;;20.03
81885;BMP280;71340;55.154;30.266;2023-07-09T18:14:48;99301.34;;;19.92
81885;BMP280;71340;55.154;30.266;2023-07-09T18:17:19;99305.03;;;19.98
81885;BMP280;71340;55.154;30.266;2023-07-09T18:19:49;99300.38;;;19.83
81885;BMP280;71340;55.154;30.266;2023-07-09T18:22:21;99302.78;;;19.77
81885;BMP280;71340;55.154;30.266;2023-07-09T18:24:48;99292.19;;;19.73
81885;BMP280;71340;55.154;30.266;2023-07-09T18:27:20;99283.81;;;19.55
81885;BMP280;71340;55.154;30.266;2023-07-09T18:29:47;99287.53;;;19.58
81885;BMP280;71340;55.154;30.266;2023-07-09T18:32:16;99286.75;;;19.38
81885;BMP280;71340;55.154;30.266;2023-07-09T18:34:44;99291.78;;;19.55
81885;BMP280;71340;55.154;30.266;2023-07-09T18:37:10;99277.09;;;19.47
81885;BMP280;71340;55.154;30.266;2023-07-09T18:39:35;99275.97;;;19.45
81885;BMP280;71340;55.154;30.266;2023-07-09T18:42:01;99284.09;;;19.38
81885;BMP280;71340;55.154;30.266;2023-07-09T18:44:26;99281.53;;;19.31
81885;BMP280;71340;55.154;30.266;2023-07-09T18:46:53;99276.13;;;19.38
81885;BMP280;71340;55.154;30.266;2023-07-09T18:49:18;99273.84;;;19.36
81885;BMP280;71340;55.154;30.266;2023-07-09T18:51:44;99276.38;;;19.43
81885;BMP280;71340;55.154;30.266;2023-07-09T18:54:10;99272.88;;;19.50
81885;BMP280;71340;55.154;30.266;2023-07-09T18:56:36;99265.19;;;19.55
81885;BMP280;71340;55.154;30.266;2023-07-09T18:59:08;99266.25;;;19.38
81885;BMP280;71340;55.154;30.266;2023-07-09T19:01:35;99266.09;;;19.45
81885;BMP280;71340;55.154;30.266;2023-07-09T19:04:01;99265.53;;;19.34
81885;BMP280;71340;55.154;30.266;2023-07-09T19:06:27;99270.81;;;19.38
81885;BMP280;71340;55.154;30.266;2023-07-09T19:08:52;99275.25;;;19.44
81885;BMP280;71340;55.154;30.266;2023-07-09T19:11:17;99266.94;;;19.42
81885;BMP280;71340;55.154;30.266;2023-07-09T19:13:43;99268.31;;;19.27
81885;BMP280;71340;55.154;30.266;2023-07-09T19:16:22;99273.50;;;19.34
81885;BMP280;71340;55.154;30.266;2023-07-09T19:18:47;99274.16;;;19.19
81885;BMP280;71340;55.154;30.266;2023-07-09T19:21:13;99271.78;;;19.24
81885;BMP280;71340;55.154;30.266;2023-07-09T19:23:38;99264.97;;;19.23
81885;BMP280;71340;55.154;30.266;2023-07-09T19:26:04;99260.56;;;19.13
81885;BMP280;71340;55.154;30.266;2023-07-09T19:28:29;99261.03;;;19.31
81885;BMP280;71340;55.154;30.266;2023-07-09T19:30:54;99265.50;;;19.38
81885;BMP280;71340;55.154;30.266;2023-07-09T19:33:34;99270.34;;;19.20
81885;BMP280;71340;55.154;30.266;2023-07-09T19:36:00;99275.09;;;19.32
81885;BMP280;71340;55.154;30.266;2023-07-09T19:38:25;99273.38;;;19.18
81885;BMP280;71340;55.154;30.266;2023-07-09T19:40:51;99273.53;;;19.11
81885;BMP280;71340;55.154;30.266;2023-07-09T19:43:16;99266.56;;;19.21
81885;BMP280;71340;55.154;30.266;2023-07-09T19:45:47;99262.44;;;19.16
81885;BMP280;71340;55.154;30.266;2023-07-09T19:48:17;99268.22;;;19.11
81885;BMP280;71340;55.154;30.266;2023-07-09T19:50:45;99265.94;;;19.10
81885;BMP280;71340;55.154;30.266;2023-07-09T19:53:25;99264.44;;;19.09
81885;BMP280;71340;55.154;30.266;2023-07-09T19:55:52;99263.28;;;19.10
81885;BMP280;71340;55.154;30.266;2023-07-09T19:58:18;99263.34;;;19.06
81885;BMP280;71340;55.154;30.266;2023-07-09T20:00:44;99264.38;;;18.89
81885;BMP280;71340;55.154;30.266;2023-07-09T20:03:23;99259.00;;;18.66
81885;BMP280;71340;55.154;30.266;2023-07-09T20:05:48;99264.06;;;18.57
81885;BMP280;71340;55.154;30.266;2023-07-09T20:08:15;99249.50;;;18.42
81885;BMP280;71340;55.154;30.266;2023-07-09T20:10:42;99262.91;;;18.58
81885;BMP280;71340;55.154;30.266;2023-07-09T20:13:12;99258.09;;;18.49
81885;BMP280;71340;55.154;30.266;2023-07-09T20:15:38;99256.66;;;18.45
81885;BMP280;71340;55.154;30.266;2023-07-09T20:18:14;99255.16;;;18.44
81885;BMP280;71340;55.154;30.266;2023-07-09T20:20:39;99246.88;;;18.38
81885;BMP280;71340;55.154;30.266;2023-07-09T20:23:10;99250.31;;;18.39
81885;BMP280;71340;55.154;30.266;2023-07-09T20:25:36;99247.72;;;18.32
81885;BMP280;71340;55.154;30.266;2023-07-09T20:28:07;99255.59;;;18.39
81885;BMP280;71340;55.154;30.266;2023-07-09T20:30:38;99251.13;;;18.32
81885;BMP280;71340;55.154;30.266;2023-07-09T20:33:09;99247.44;;;18.23
81885;BMP280;71340;55.154;30.266;2023-07-09T20:35:35;99250.63;;;18.11
81885;BMP280;71340;55.154;30.266;2023-07-09T20:38:00;99245.78;;;18.06
81885;BMP280;71340;55.154;30.266;2023-07-09T20:40:25;99245.78;;;18.06
81885;BMP280;71340;55.154;30.266;2023-07-09T20:42:54;99249.50;;;18.12
81885;BMP280;71340;55.154;30.266;2023-07-09T20:45:22;99240.78;;;18.08
81885;BMP280;71340;55.154;30.266;2023-07-09T20:47:50;99238.88;;;18.12
81885;BMP280;71340;55.154;30.266;2023-07-09T20:50:17;99242.31;;;18.09
81885;BMP280;71340;55.154;30.266;2023-07-09T20:52:43;99237.72;;;18.13
81885;BMP280;71340;55.154;30.266;2023-07-09T20:55:11;99240.78;;;18.08
81885;BMP280;71340;55.154;30.266;2023-07-09T20:57:37;99236.09;;;17.92
81885;BMP280;71340;55.154;30.266;2023-07-09T21:00:08;99236.03;;;17.96
81885;BMP280;71340;55.154;30.266;2023-07-09T21:02:34;99239.03;;;18.01
81885;BMP280;71340;55.154;30.266;2023-07-09T21:05:00;99233.31;;;17.99
81885;BMP280;71340;55.154;30.266;2023-07-09T21:07:25;99242.44;;;17.98
81885;BMP280;71340;55.154;30.266;2023-07-09T21:09:51;99238.59;;;18.03
81885;BMP280;71340;55.154;30.266;2023-07-09T21:12:17;99228.53;;;17.87
81885;BMP280;71340;55.154;30.266;2023-07-09T21:14:44;99232.41;;;17.83
81885;BMP280;71340;55.154;30.266;2023-07-09T21:17:16;99231.38;;;17.70
81885;BMP280;71340;55.154;30.266;2023-07-09T21:19:42;99233.97;;;17.77
81885;BMP280;71340;55.154;30.266;2023-07-09T21:22:13;99227.16;;;17.76
81885;BMP280;71340;55.154;30.266;2023-07-09T21:24:43;99226.84;;;17.67
81885;BMP280;71340;55.154;30.266;2023-07-09T21:27:09;99229.22;;;17.57
81885;BMP280;71340;55.154;30.266;2023-07-09T21:29:34;99229.63;;;17.56
81885;BMP280;71340;55.154;30.266;2023-07-09T21:32:05;99227.06;;;17.45
81885;BMP280;71340;55.154;30.266;2023-07-09T21:34:32;99234.19;;;17.52
81885;BMP280;71340;55.154;30.266;2023-07-09T21:37:02;99227.16;;;17.38
81885;BMP280;71340;55.154;30.266;2023-07-09T21:39:34;99231.00;;;17.30
81885;BMP280;71340;55.154;30.266;2023-07-09T21:42:01;99227.16;;;17.38
81885;BMP280;71340;55.154;30.266;2023-07-09T21:44:26;99224.44;;;17.45
81885;BMP280;71340;55.154;30.266;2023-07-09T21:46:56;99222.94;;;17.41
81885;BMP280;71340;55.154;30.266;2023-07-09T21:49:26;99220.44;;;17.27
81885;BMP280;71340;55.154;30.266;2023-07-09T21:51:52;99224.28;;;17.22
81885;BMP280;71340;55.154;30.266;2023-07-09T21:56:45;99221.88;;;17.31
81885;BMP280;71340;55.154;30.266;2023-07-09T21:59:11;99220.75;;;17.32
81885;BMP280;71340;55.154;30.266;2023-07-09T22:01:36;99218.91;;;17.29
81885;BMP280;71340;55.154;30.266;2023-07-09T22:04:11;99223.50;;;17.22
81885;BMP280;71340;55.154;30.266;2023-07-09T22:06:38;99215.50;;;17.29
81885;BMP280;71340;55.154;30.266;2023-07-09T22:09:10;99220.53;;;17.16
81885;BMP280;71340;55.154;30.266;2023-07-09T22:11:35;99218.91;;;17.26
81885;BMP280;71340;55.154;30.266;2023-07-09T22:14:01;99223.13;;;17.23
81885;BMP280;71340;55.154;30.266;2023-07-09T22:16:26;99226.22;;;17.11
81885;BMP280;71340;55.154;30.266;2023-07-09T22:18:51;99225.16;;;17.05
81885;BMP280;71340;55.154;30.266;2023-07-09T22:21:17;99227.44;;;17.03
81885;BMP280;71340;55.154;30.266;2023-07-09T22:23:42;99228.97;;;17.01
81885;BMP280;71340;55.154;30.266;2023-07-09T22:26:07;99229.00;;;16.94
81885;BMP280;71340;55.154;30.266;2023-07-09T22:28:33;99219.50;;;17.03
81885;BMP280;71340;55.154;30.266;2023-07-09T22:30:58;99224.75;;;17.07
81885;BMP280;71340;55.154;30.266;2023-07-09T22:33:23;99226.97;;;17.15
81885;BMP280;71340;55.154;30.266;2023-07-09T22:35:49;99227.75;;;17.12
81885;BMP280;71340;55.154;30.266;2023-07-09T22:38:19;99234.16;;;17.11
81885;BMP280;71340;55.154;30.266;2023-07-09T22:40:45;99239.78;;;17.17
81885;BMP280;71340;55.154;30.266;2023-07-09T22:43:10;99230.28;;;17.23
81885;BMP280;71340;55.154;30.266;2023-07-09T22:45:37;99224.63;;;17.21
81885;BMP280;71340;55.154;30.266;2023-07-09T22:48:03;99230.78;;;17.11
81885;BMP280;71340;55.154;30.266;2023-07-09T22:50:33;99230.41;;;17.09
81885;BMP280;71340;55.154;30.266;2023-07-09T22:52:59;99235.34;;;17.10
81885;BMP280;71340;55.154;30.266;2023-07-09T22:55:36;99240.00;;;16.92
81885;BMP280;71340;55.154;30.266;2023-07-09T22:58:04;99215.47;;;16.81
81885;BMP280;71340;55.154;30.266;2023-07-09T23:00:32;99225.22;;;16.98
81885;BMP280;71340;55.154;30.266;2023-07-09T23:02:59;99223.41;;;16.85
81885;BMP280;71340;55.154;30.266;2023-07-09T23:05:25;99226.44;;;16.83
81885;BMP280;71340;55.154;30.266;2023-07-09T23:07:50;99214.00;;;16.73
81885;BMP280;71340;55.154;30.266;2023-07-09T23:10:17;99219.72;;;16.75
81885;BMP280;71340;55.154;30.266;2023-07-09T23:12:43;99225.03;;;16.68
81885;BMP280;71340;55.154;30.266;2023-07-09T23:15:20;99218.91;;;16.78
81885;BMP280;71340;55.154;30.266;2023-07-09T23:17:49;99212.44;;;16.83
81885;BMP280;71340;55.154;30.266;2023-07-09T23:20:15;99219.00;;;16.64
81885;BMP280;71340;55.154;30.266;2023-07-09T23:22:41;99218.63;;;16.62
81885;BMP280;71340;55.154;30.266;2023-07-09T23:25:10;99227.72;;;16.58
81885;BMP280;71340;55.154;30.266;2023-07-09T23:27:35;99229.56;;;16.68
81885;BMP280;71340;55.154;30.266;2023-07-09T23:30:12;99212.88;;;16.71
81885;BMP280;71340;55.154;30.266;2023-07-09T23:32:37;99229.94;;;16.66
81885;BMP280;71340;55.154;30.266;2023-07-09T23:35:16;99232.94;;;16.72
81885;BMP280;71340;55.154;30.266;2023-07-09T23:37:42;99237.06;;;16.76
81885;BMP280;71340;55.154;30.266;2023-07-09T23:40:08;99235.97;;;16.70
81885;BMP280;71340;55.154;30.266;2023-07-09T23:42:34;99226.88;;;16.75
81885;BMP280;71340;55.154;30.266;2023-07-09T23:45:00;99231.44;;;16.67
81885;BMP280;71340;55.154;30.266;2023-07-09T23:47:25;99238.34;;;16.54
81885;BMP280;71340;55.154;30.266;2023-07-09T23:49:50;99234.94;;;16.53
81885;BMP280;71340;55.154;30.266;2023-07-09T23:52:16;99236.88;;;16.42
81885;BMP280;71340;55.154;30.266;2023-07-09T23:54:41;99233.13;;;16.33
81885;BMP280;71340;55.154;30.266;2023-07-09T23:57:07;99232.00;;;16.37
81885;BMP280;71340;55.154;30.266;2023-07-09T23:59:34;99232.69;;;16.48
